Time;durP1;ratioP1;P1;durP2;ratioP2;P2;SDS_P1;SDS_P2;PMS_P1;PMS_P2;Temp;Humidity;BMP_temperature;BMP_pressure;BME280_temperature;BME280_humidity;BME280_pressure;Samples;Min_cycle;Max_cycle;Signal;HPM_P1;HPM_P2
2021/05/31 00:00:00;;;;;;;8.57;6.23;;;15.70;99.90;;;;;;4999588;28;20280;-50
2021/05/31 00:02:27;;;;;;;11.60;6.80;;;15.70;99.90;;;;;;4996538;28;20207;-49
2021/05/31 00:04:54;;;;;;;9.53;6.10;;;15.70;99.90;;;;;;4995827;28;20264;-49
2021/05/31 00:07:21;;;;;;;9.93;6.47;;;15.60;99.90;;;;;;4999734;28;20632;-50
2021/05/31 00:09:49;;;;;;;11.33;6.43;;;15.80;99.90;;;;;;4995772;28;20212;-50
2021/05/31 00:12:18;;;;;;;8.37;6.20;;;15.80;99.90;;;;;;5002827;28;20723;-50
2021/05/31 00:14:45;;;;;;;12.07;6.10;;;15.60;99.90;;;;;;4998129;28;20760;-49
2021/05/31 00:17:13;;;;;;;10.03;6.00;;;15.70;99.90;;;;;;5001203;28;20681;-50
2021/05/31 00:19:40;;;;;;;9.47;5.67;;;15.60;99.90;;;;;;4995162;28;20667;-50
2021/05/31 00:22:09;;;;;;;12.37;7.13;;;15.50;99.90;;;;;;5006966;28;20231;-49
2021/05/31 00:24:36;;;;;;;9.97;6.60;;;15.60;99.90;;;;;;5002581;28;20231;-50
2021/05/31 00:27:04;;;;;;;9.60;5.80;;;15.60;99.90;;;;;;4999099;28;20260;-49
2021/05/31 00:29:31;;;;;;;7.47;5.87;;;15.40;99.90;;;;;;5000704;28;20270;-52
2021/05/31 00:31:58;;;;;;;9.87;5.83;;;15.30;99.90;;;;;;5001552;28;20285;-50
2021/05/31 00:34:26;;;;;;;10.70;6.07;;;15.50;99.90;;;;;;5001896;28;20702;-49
2021/05/31 00:36:53;;;;;;;8.57;6.13;;;15.50;99.90;;;;;;4997932;28;20208;-49
2021/05/31 00:39:21;;;;;;;9.33;6.10;;;15.50;99.90;;;;;;5003758;28;20236;-50
2021/05/31 00:41:50;;;;;;;11.57;6.23;;;15.40;99.90;;;;;;5016695;28;20267;-50
2021/05/31 00:44:18;;;;;;;11.27;5.87;;;15.50;99.90;;;;;;4999202;28;20254;-50
2021/05/31 00:46:46;;;;;;;8.60;6.23;;;15.50;99.90;;;;;;5000140;28;20304;-51
2021/05/31 00:49:23;;;;;;;9.10;6.87;;;15.30;99.90;;;;;;4999739;28;20643;-50
2021/05/31 00:51:50;;;;;;;7.17;6.10;;;15.20;99.90;;;;;;5011848;28;21828;-50
2021/05/31 00:54:19;;;;;;;10.37;6.77;;;15.20;99.90;;;;;;4998161;28;20222;-50
2021/05/31 00:56:47;;;;;;;10.67;6.27;;;15.30;99.90;;;;;;5006794;28;20274;-51
2021/05/31 00:59:14;;;;;;;9.50;6.17;;;15.20;99.90;;;;;;4999418;28;20266;-50
2021/05/31 01:01:42;;;;;;;10.63;6.57;;;15.20;99.90;;;;;;5001014;28;20581;-49
2021/05/31 01:04:09;;;;;;;10.50;6.50;;;15.20;99.90;;;;;;5003935;28;20239;-50
2021/05/31 01:06:40;;;;;;;9.10;7.20;;;15.30;99.90;;;;;;4998865;28;20197;-51
2021/05/31 01:09:16;;;;;;;9.70;6.70;;;15.10;99.90;;;;;;5006829;28;20278;-50
2021/05/31 01:11:49;;;;;;;7.50;6.30;;;15.10;99.90;;;;;;4997629;28;20519;-49
2021/05/31 01:14:25;;;;;;;10.93;7.37;;;15.00;99.90;;;;;;5000547;28;20218;-50
2021/05/31 01:16:58;;;;;;;11.80;6.30;;;14.90;99.90;;;;;;5004540;28;20770;-50
2021/05/31 01:19:50;;;;;;;10.33;6.83;;;15.00;99.90;;;;;;5001166;28;20300;-50
2021/05/31 01:22:21;;;;;;;10.67;6.53;;;15.00;99.90;;;;;;4994438;28;20767;-50
2021/05/31 01:24:51;;;;;;;10.67;6.40;;;15.00;99.90;;;;;;4999808;28;20736;-50
2021/05/31 01:27:20;;;;;;;8.47;6.10;;;15.00;99.90;;;;;;5002469;28;20318;-49
2021/05/31 01:29:55;;;;;;;9.40;6.90;;;15.00;99.90;;;;;;5010237;28;20211;-49
2021/05/31 01:32:32;;;;;;;10.10;7.00;;;15.00;99.90;;;;;;4999011;28;20197;-51
2021/05/31 01:35:03;;;;;;;9.10;6.43;;;14.90;99.90;;;;;;5001429;28;20680;-50
2021/05/31 01:37:33;;;;;;;12.67;7.07;;;14.90;99.90;;;;;;4999377;28;20939;-50
2021/05/31 01:40:09;;;;;;;11.73;6.80;;;14.80;99.90;;;;;;4998405;28;20285;-50
2021/05/31 01:42:36;;;;;;;12.47;7.40;;;14.80;99.90;;;;;;4996982;28;20492;-50
2021/05/31 01:45:05;;;;;;;10.93;7.00;;;14.80;99.90;;;;;;4998649;28;20388;-49
2021/05/31 01:47:33;;;;;;;10.40;7.23;;;14.80;99.90;;;;;;4996021;28;20235;-49
2021/05/31 01:50:03;;;;;;;13.40;7.73;;;14.80;99.90;;;;;;5003453;28;20219;-50
2021/05/31 01:52:31;;;;;;;10.53;7.20;;;14.80;99.90;;;;;;5001447;28;20209;-50
2021/05/31 01:54:59;;;;;;;11.93;7.30;;;14.80;99.90;;;;;;4999731;28;20468;-51
2021/05/31 01:57:26;;;;;;;13.30;8.00;;;14.80;99.90;;;;;;4996816;28;20324;-49
2021/05/31 01:59:53;;;;;;;12.70;7.83;;;14.60;99.90;;;;;;5000006;28;20290;-49
2021/05/31 02:02:29;;;;;;;14.03;7.70;;;14.60;99.90;;;;;;4999036;28;20217;-49
2021/05/31 02:04:56;;;;;;;12.40;7.63;;;14.70;99.90;;;;;;5001756;28;20330;-50
2021/05/31 02:07:23;;;;;;;9.80;7.83;;;14.70;99.90;;;;;;5003374;28;20678;-50
2021/05/31 02:09:50;;;;;;;13.33;8.20;;;14.70;99.90;;;;;;5002515;28;20606;-50
2021/05/31 02:12:21;;;;;;;13.10;7.83;;;14.60;99.90;;;;;;4999465;28;20295;-50
2021/05/31 02:14:58;;;;;;;12.70;7.23;;;14.70;99.90;;;;;;5000871;28;20307;-50
2021/05/31 02:17:45;;;;;;;12.67;8.07;;;14.60;99.90;;;;;;5001132;28;20305;-51
2021/05/31 02:20:17;;;;;;;11.03;7.33;;;14.40;99.90;;;;;;5001686;28;20236;-51
2021/05/31 02:22:49;;;;;;;16.23;8.63;;;14.40;99.90;;;;;;4999872;28;20721;-50
2021/05/31 02:25:16;;;;;;;9.17;7.50;;;14.30;99.90;;;;;;4998131;28;20688;-51
2021/05/31 02:27:45;;;;;;;10.57;6.90;;;14.40;99.90;;;;;;4998591;28;20216;-50
2021/05/31 02:30:15;;;;;;;15.50;8.03;;;14.30;99.90;;;;;;4997260;28;20214;-50
2021/05/31 02:33:03;;;;;;;14.90;7.57;;;14.30;99.90;;;;;;4998000;28;20253;-49
2021/05/31 02:35:34;;;;;;;14.23;8.27;;;14.30;99.90;;;;;;5003477;28;20288;-50
2021/05/31 02:38:02;;;;;;;15.87;7.60;;;14.30;99.90;;;;;;4999468;28;20251;-50
2021/05/31 02:40:30;;;;;;;11.97;7.67;;;14.20;99.90;;;;;;4998566;28;20305;-50
2021/05/31 02:43:00;;;;;;;11.60;7.80;;;14.10;99.90;;;;;;4999205;28;20297;-49
2021/05/31 02:45:30;;;;;;;12.57;8.00;;;14.00;99.90;;;;;;4998264;28;20362;-50
2021/05/31 02:47:58;;;;;;;11.87;8.30;;;14.10;99.90;;;;;;5003388;28;20292;-49
2021/05/31 02:50:29;;;;;;;13.60;8.57;;;14.20;99.90;;;;;;4999888;28;20303;-50
2021/05/31 02:52:56;;;;;;;10.90;7.67;;;14.20;99.90;;;;;;4997200;28;20231;-50
2021/05/31 02:55:25;;;;;;;12.20;7.90;;;14.20;99.90;;;;;;5004005;28;20234;-50
2021/05/31 02:57:52;;;;;;;16.43;8.30;;;14.10;99.90;;;;;;5001933;28;20300;-50
2021/05/31 03:00:22;;;;;;;12.63;8.63;;;14.00;99.90;;;;;;5002130;28;20207;-50
2021/05/31 03:02:49;;;;;;;13.63;8.93;;;13.90;99.90;;;;;;4998438;28;20238;-50
2021/05/31 03:05:19;;;;;;;14.87;9.03;;;14.00;99.90;;;;;;5001002;28;20662;-49
2021/05/31 03:07:46;;;;;;;11.50;7.93;;;13.80;99.90;;;;;;4993211;28;20871;-49
2021/05/31 03:10:15;;;;;;;13.53;8.63;;;13.70;99.90;;;;;;5003885;28;20208;-50
2021/05/31 03:12:44;;;;;;;14.80;8.77;;;13.80;99.90;;;;;;5001657;28;20274;-49
2021/05/31 03:15:16;;;;;;;13.13;8.53;;;13.70;99.90;;;;;;5001671;28;20198;-49
2021/05/31 03:17:47;;;;;;;11.60;8.47;;;13.80;99.90;;;;;;4997593;28;20234;-50
2021/05/31 03:20:16;;;;;;;11.87;8.70;;;13.80;99.90;;;;;;5001092;28;20295;-50
2021/05/31 03:22:43;;;;;;;15.17;8.50;;;13.90;99.90;;;;;;5002922;28;20228;-50
2021/05/31 03:25:11;;;;;;;15.97;8.80;;;13.80;99.90;;;;;;5001713;28;20570;-49
2021/05/31 03:27:39;;;;;;;14.90;9.17;;;13.80;99.90;;;;;;5002147;28;20244;-50
2021/05/31 03:30:11;;;;;;;14.23;8.63;;;13.70;99.90;;;;;;4997042;28;20210;-49
2021/05/31 03:32:39;;;;;;;14.47;9.57;;;13.80;99.90;;;;;;4996703;28;20398;-49
2021/05/31 03:35:08;;;;;;;11.53;8.30;;;14.00;99.90;;;;;;5014286;28;20618;-50
2021/05/31 03:37:36;;;;;;;19.07;9.27;;;14.00;99.90;;;;;;4999224;28;20309;-50
2021/05/31 03:40:04;;;;;;;15.67;9.33;;;13.90;99.90;;;;;;4999772;28;20235;-50
2021/05/31 03:42:31;;;;;;;13.90;8.83;;;13.80;99.90;;;;;;4995409;28;20244;-49
2021/05/31 03:44:58;;;;;;;16.07;8.97;;;13.80;99.90;;;;;;5006736;28;20311;-50
2021/05/31 03:47:26;;;;;;;16.40;8.77;;;13.80;99.90;;;;;;4995990;28;20631;-48
2021/05/31 03:49:52;;;;;;;14.60;9.20;;;13.80;99.90;;;;;;5001455;28;20293;-49
2021/05/31 03:52:19;;;;;;;18.53;9.97;;;13.80;99.90;;;;;;5003309;28;21175;-49
2021/05/31 03:54:47;;;;;;;19.97;9.70;;;13.70;99.90;;;;;;5009071;28;20622;-50
2021/05/31 03:57:14;;;;;;;15.03;9.40;;;13.70;99.90;;;;;;5002932;28;20611;-50
2021/05/31 03:59:41;;;;;;;15.60;9.60;;;13.70;99.90;;;;;;4999925;28;20297;-49
2021/05/31 04:02:08;;;;;;;14.70;9.73;;;13.80;99.90;;;;;;5003121;28;20457;-49
2021/05/31 04:04:43;;;;;;;13.20;9.23;;;13.70;99.90;;;;;;5000152;28;20664;-49
2021/05/31 04:12:45;;;;;;;14.67;9.50;;;13.50;99.90;;;;;;5003338;28;20737;-49
2021/05/31 04:15:13;;;;;;;16.47;9.77;;;13.60;99.90;;;;;;5003887;28;20214;-50
2021/05/31 04:17:40;;;;;;;17.40;10.23;;;13.70;99.90;;;;;;5003158;28;20252;-49
2021/05/31 04:20:08;;;;;;;14.63;10.30;;;13.60;99.90;;;;;;5007229;28;20245;-50
2021/05/31 04:22:34;;;;;;;15.03;9.40;;;13.50;99.90;;;;;;5002726;28;20204;-50
2021/05/31 04:25:02;;;;;;;14.63;9.80;;;13.60;99.90;;;;;;5000561;28;20300;-50
2021/05/31 04:27:29;;;;;;;17.87;10.57;;;13.60;99.90;;;;;;5000439;28;20300;-50
2021/05/31 04:29:56;;;;;;;17.23;10.30;;;13.60;99.90;;;;;;5000579;28;20279;-50
2021/05/31 04:32:22;;;;;;;17.23;10.50;;;13.60;99.90;;;;;;4999070;28;20200;-51
2021/05/31 04:34:49;;;;;;;17.17;10.43;;;13.70;99.90;;;;;;4999205;28;20225;-50
2021/05/31 04:37:17;;;;;;;16.23;9.93;;;13.70;99.90;;;;;;5003805;28;20275;-48
2021/05/31 04:39:43;;;;;;;15.17;10.07;;;13.80;99.90;;;;;;5000263;28;20236;-49
2021/05/31 04:42:10;;;;;;;16.60;9.23;;;13.80;99.90;;;;;;5001148;28;20729;-49
2021/05/31 04:44:37;;;;;;;17.70;10.27;;;13.80;99.90;;;;;;4997580;28;20583;-49
2021/05/31 04:47:05;;;;;;;19.57;11.07;;;13.80;99.90;;;;;;4996677;28;20197;-49
2021/05/31 04:49:33;;;;;;;17.60;10.97;;;13.80;99.90;;;;;;4998443;28;20281;-49
2021/05/31 04:52:01;;;;;;;18.43;11.20;;;13.80;99.90;;;;;;5001067;28;20193;-50
2021/05/31 04:54:28;;;;;;;14.77;10.20;;;13.90;99.90;;;;;;5002601;28;20318;-50
2021/05/31 04:56:56;;;;;;;15.83;10.37;;;14.00;99.90;;;;;;4999820;28;20235;-51
2021/05/31 04:59:22;;;;;;;18.40;10.83;;;14.00;99.90;;;;;;4999825;28;20710;-48
2021/05/31 05:01:49;;;;;;;16.00;10.87;;;14.20;99.90;;;;;;5011529;28;20297;-49
2021/05/31 05:04:16;;;;;;;18.10;10.70;;;14.30;99.90;;;;;;5001862;28;20567;-50
2021/05/31 05:06:43;;;;;;;17.70;11.00;;;14.30;99.90;;;;;;5003539;28;20759;-49
2021/05/31 05:09:10;;;;;;;16.23;10.37;;;14.30;99.90;;;;;;5003239;28;20233;-50
2021/05/31 05:11:37;;;;;;;16.60;10.20;;;14.30;99.90;;;;;;5003893;28;20300;-51
2021/05/31 05:14:04;;;;;;;15.13;10.13;;;14.50;99.90;;;;;;5003551;28;20201;-49
2021/05/31 05:16:31;;;;;;;19.43;11.03;;;14.40;99.90;;;;;;5002827;28;20365;-50
2021/05/31 05:18:58;;;;;;;22.70;11.50;;;14.60;99.90;;;;;;5001125;28;20237;-50
2021/05/31 05:21:24;;;;;;;18.80;11.03;;;14.70;99.90;;;;;;5003512;28;20230;-50
2021/05/31 05:23:51;;;;;;;18.47;11.73;;;14.80;99.90;;;;;;5000080;28;20275;-50
2021/05/31 05:26:19;;;;;;;17.53;11.80;;;14.80;99.90;;;;;;4999419;28;20204;-50
2021/05/31 05:28:49;;;;;;;22.07;11.17;;;15.00;99.90;;;;;;4999662;28;20203;-50
2021/05/31 05:31:16;;;;;;;14.37;10.53;;;14.90;99.90;;;;;;4999890;28;21068;-50
2021/05/31 05:33:43;;;;;;;18.83;10.33;;;15.10;99.90;;;;;;4998284;28;20514;-49
2021/05/31 05:36:28;;;;;;;19.67;11.77;;;15.20;99.90;;;;;;4998203;28;20347;-49
2021/05/31 05:50:15;;;;;;;17.30;10.40;;;15.60;99.90;;;;;;5000920;28;20226;-50
2021/05/31 05:52:43;;;;;;;16.40;10.40;;;15.80;99.90;;;;;;4997585;28;20309;-50
2021/05/31 05:55:14;;;;;;;15.87;10.63;;;16.00;99.90;;;;;;4993982;28;20732;-50
2021/05/31 05:57:41;;;;;;;16.37;9.23;;;15.80;99.90;;;;;;4991796;28;20357;-51
2021/05/31 06:00:13;;;;;;;15.73;10.10;;;16.00;99.90;;;;;;4993281;28;20280;-50
2021/05/31 06:02:40;;;;;;;14.17;9.73;;;16.10;99.90;;;;;;4994508;28;20245;-49
2021/05/31 06:05:09;;;;;;;17.00;10.10;;;16.00;99.90;;;;;;5001078;28;20858;-50
2021/05/31 06:07:36;;;;;;;14.30;9.40;;;16.10;99.90;;;;;;4995643;28;20286;-50
2021/05/31 06:10:04;;;;;;;12.63;9.83;;;16.00;99.90;;;;;;4999019;28;20202;-50
2021/05/31 06:12:31;;;;;;;17.23;10.00;;;16.00;99.90;;;;;;5011173;28;20299;-50
2021/05/31 06:14:58;;;;;;;13.37;9.40;;;16.20;99.90;;;;;;4998078;28;20240;-50
2021/05/31 06:17:25;;;;;;;15.80;9.83;;;16.30;99.90;;;;;;4996508;28;20635;-49
2021/05/31 06:19:52;;;;;;;14.83;10.63;;;16.50;99.90;;;;;;4996305;28;20518;-50
2021/05/31 06:22:19;;;;;;;14.80;9.53;;;16.50;99.90;;;;;;4998255;28;20268;-50
2021/05/31 06:24:46;;;;;;;17.33;9.93;;;16.70;99.90;;;;;;4998898;28;20255;-50
2021/05/31 06:27:13;;;;;;;18.77;10.03;;;16.90;99.90;;;;;;4994671;28;20281;-49
2021/05/31 06:29:40;;;;;;;15.10;9.40;;;17.00;99.90;;;;;;4997147;28;20281;-50
2021/05/31 06:32:07;;;;;;;16.47;9.60;;;17.00;99.90;;;;;;4993192;28;20224;-49
2021/05/31 06:34:34;;;;;;;17.03;9.70;;;17.10;99.90;;;;;;4996930;28;20588;-50
2021/05/31 06:37:01;;;;;;;12.80;9.23;;;17.20;99.90;;;;;;5000400;28;20207;-49
2021/05/31 06:39:28;;;;;;;17.97;10.50;;;17.40;99.90;;;;;;4998579;28;20227;-49
2021/05/31 06:41:55;;;;;;;15.27;10.17;;;17.50;99.90;;;;;;4999018;28;20298;-51
2021/05/31 06:44:22;;;;;;;13.37;9.97;;;17.80;99.90;;;;;;4999842;28;20211;-50
2021/05/31 06:46:49;;;;;;;14.37;9.10;;;17.90;99.90;;;;;;4998081;28;20248;-50
2021/05/31 06:49:16;;;;;;;14.47;9.97;;;17.90;99.90;;;;;;5000567;28;20219;-50
2021/05/31 06:51:45;;;;;;;15.43;10.03;;;17.90;99.90;;;;;;4998728;28;20326;-50
2021/05/31 06:54:12;;;;;;;13.23;9.53;;;18.10;99.90;;;;;;4998383;28;20208;-50
2021/05/31 06:56:40;;;;;;;15.77;10.20;;;18.30;99.90;;;;;;5000640;28;20246;-50
2021/05/31 06:59:07;;;;;;;16.57;9.97;;;18.30;99.90;;;;;;4996738;28;20276;-49
2021/05/31 07:01:34;;;;;;;15.73;10.47;;;18.30;99.90;;;;;;4998738;28;20208;-50
2021/05/31 07:04:00;;;;;;;15.90;10.30;;;18.70;99.90;;;;;;5000495;28;20606;-50
2021/05/31 07:06:28;;;;;;;14.17;9.97;;;19.00;99.90;;;;;;4999981;28;20202;-50
2021/05/31 07:08:55;;;;;;;13.80;9.70;;;19.10;99.90;;;;;;4995377;28;20270;-50
2021/05/31 07:11:22;;;;;;;14.17;10.00;;;19.30;99.90;;;;;;4991076;28;20248;-50
2021/05/31 07:13:50;;;;;;;13.80;9.40;;;19.60;99.90;;;;;;4993870;28;20191;-51
2021/05/31 07:16:17;;;;;;;15.40;9.60;;;19.70;99.30;;;;;;4995731;28;20283;-49
2021/05/31 07:18:44;;;;;;;11.63;8.53;;;19.70;93.40;;;;;;4994456;28;20880;-49
2021/05/31 07:21:11;;;;;;;15.37;9.30;;;19.80;97.00;;;;;;4995436;28;20212;-49
2021/05/31 07:23:38;;;;;;;14.67;9.20;;;20.00;97.30;;;;;;4994331;28;20560;-50
2021/05/31 07:26:06;;;;;;;14.07;9.50;;;19.60;95.40;;;;;;4994450;28;20267;-49
2021/05/31 07:28:34;;;;;;;15.47;8.40;;;19.90;99.90;;;;;;4994157;28;20241;-50
2021/05/31 07:31:01;;;;;;;16.20;10.02;;;20.00;95.70;;;;;;4994233;28;20455;-50
2021/05/31 07:33:28;;;;;;;14.95;10.80;;;20.50;99.90;;;;;;4997439;28;20948;-50
2021/05/31 07:35:57;;;;;;;14.40;8.43;;;20.60;79.20;;;;;;4995772;28;20340;-49
2021/05/31 07:38:24;;;;;;;12.60;8.60;;;20.80;96.60;;;;;;5006994;28;20197;-51
2021/05/31 07:40:50;;;;;;;9.93;7.33;;;20.90;70.50;;;;;;4999393;28;20247;-49
2021/05/31 07:43:17;;;;;;;13.27;8.87;;;20.70;71.60;;;;;;5001073;28;20660;-50
2021/05/31 07:45:45;;;;;;;15.50;8.20;;;20.90;68.70;;;;;;4993980;28;20692;-50
2021/05/31 07:48:12;;;;;;;14.33;8.07;;;20.50;75.70;;;;;;4998377;28;20248;-49
2021/05/31 07:50:39;;;;;;;13.73;9.17;;;20.80;90.80;;;;;;4991886;28;20279;-50
2021/05/31 07:53:07;;;;;;;10.77;7.73;;;21.10;72.10;;;;;;4994338;28;20288;-50
2021/05/31 07:55:33;;;;;;;13.30;8.43;;;21.30;69.40;;;;;;4996542;28;20655;-50
2021/05/31 07:58:00;;;;;;;11.80;7.63;;;21.20;60.60;;;;;;4995577;28;20197;-50
2021/05/31 08:00:29;;;;;;;13.07;8.20;;;21.50;57.60;;;;;;4997352;28;20789;-49
2021/05/31 08:02:56;;;;;;;10.50;8.07;;;21.80;55.00;;;;;;4994723;28;20189;-50
2021/05/31 08:05:23;;;;;;;10.37;7.67;;;21.90;54.00;;;;;;4994115;28;20669;-50
2021/05/31 08:07:50;;;;;;;11.83;7.00;;;22.00;58.30;;;;;;4993430;28;20197;-49
2021/05/31 08:10:18;;;;;;;9.60;7.23;;;22.40;50.10;;;;;;4996978;28;20197;-49
2021/05/31 08:12:50;;;;;;;7.83;6.93;;;22.20;42.50;;;;;;4990744;28;20569;-48
2021/05/31 08:15:17;;;;;;;12.10;6.83;;;21.90;39.80;;;;;;5008292;28;21741;-48
2021/05/31 08:17:44;;;;;;;10.20;6.60;;;22.10;40.50;;;;;;4991091;28;20244;-49
2021/05/31 08:20:12;;;;;;;9.67;7.20;;;22.30;35.90;;;;;;4995267;28;20238;-49
2021/05/31 08:22:41;;;;;;;9.50;7.07;;;22.30;30.70;;;;;;4999581;28;20524;-49
2021/05/31 08:25:12;;;;;;;9.67;6.20;;;21.60;35.80;;;;;;4995993;28;20737;-49
2021/05/31 08:27:39;;;;;;;7.13;5.43;;;22.10;31.40;;;;;;4994697;28;20780;-50
2021/05/31 08:30:07;;;;;;;9.30;5.57;;;22.30;26.60;;;;;;4991855;28;20401;-49
2021/05/31 08:32:34;;;;;;;7.77;5.90;;;22.70;30.20;;;;;;4995902;28;20312;-50
2021/05/31 08:35:01;;;;;;;8.13;5.63;;;23.00;29.00;;;;;;5002174;28;20213;-50
2021/05/31 08:37:28;;;;;;;11.80;5.50;;;22.90;24.70;;;;;;5001896;28;20202;-50
2021/05/31 08:41:05;;;;;;;7.27;4.50;;;23.30;20.60;;;;;;5066478;27;1255032;-51
2021/05/31 08:43:31;;;;;;;6.27;3.73;;;23.40;16.90;;;;;;5106097;28;20638;-50
2021/05/31 08:45:58;;;;;;;5.83;4.03;;;23.50;14.30;;;;;;5102698;28;20269;-51
2021/05/31 08:48:28;;;;;;;4.00;3.60;;;23.70;12.60;;;;;;5105484;28;20541;-51
2021/05/31 08:50:55;;;;;;;7.83;4.10;;;23.90;9.20;;;;;;5107095;28;20249;-59
2021/05/31 08:53:21;;;;;;;7.57;3.83;;;24.10;8.70;;;;;;5102448;28;20260;-57
2021/05/31 08:55:49;;;;;;;6.27;4.07;;;24.20;6.70;;;;;;5108228;28;20299;-56
2021/05/31 08:58:18;;;;;;;6.03;3.63;;;23.90;1.70;;;;;;5107581;28;20258;-57
2021/05/31 09:00:45;;;;;;;3.83;3.23;;;24.10;8.10;;;;;;5110016;27;20268;-59
2021/05/31 09:03:12;;;;;;;5.70;4.47;;;24.10;5.60;;;;;;5109935;28;20708;-57
2021/05/31 09:05:43;;;;;;;4.47;3.50;;;24.10;10.20;;;;;;5109211;28;20225;-57
2021/05/31 09:08:13;;;;;;;3.73;2.90;;;24.50;1.00;;;;;;5107103;28;20260;-57
2021/05/31 09:10:45;;;;;;;7.40;3.03;;;24.10;1.00;;;;;;5112841;28;20301;-57
2021/05/31 09:13:34;;;;;;;5.90;3.73;;;24.70;1.00;;;;;;5107909;28;20656;-61
2021/05/31 09:16:16;;;;;;;7.57;4.33;;;25.00;1.00;;;;;;5103679;28;20740;-61
2021/05/31 09:18:46;;;;;;;5.87;3.90;;;24.80;1.00;;;;;;5097402;28;20649;-59
2021/05/31 09:21:13;;;;;;;5.30;3.93;;;24.80;1.00;;;;;;5093392;28;20829;-51
2021/05/31 09:23:40;;;;;;;5.13;3.83;;;24.70;1.00;;;;;;5094089;28;20192;-51
2021/05/31 09:26:07;;;;;;;4.90;3.80;;;24.20;1.00;;;;;;5095390;28;20189;-52
2021/05/31 09:28:34;;;;;;;5.97;3.87;;;24.50;1.80;;;;;;5092988;28;20194;-51
2021/05/31 09:31:13;;;;;;;5.03;3.80;;;25.00;1.00;;;;;;5090886;28;20464;-51
2021/05/31 09:33:40;;;;;;;6.90;4.70;;;24.90;1.00;;;;;;5097142;28;20278;-52
2021/05/31 09:36:08;;;;;;;8.20;4.47;;;24.80;1.00;;;;;;5094705;28;20247;-52
2021/05/31 09:38:45;;;;;;;5.33;4.53;;;24.60;1.00;;;;;;5091286;28;20235;-51
2021/05/31 09:41:28;;;;;;;5.20;4.70;;;24.70;1.00;;;;;;5093950;28;20312;-52
2021/05/31 09:44:00;;;;;;;9.10;5.70;;;23.70;1.00;;;;;;5095753;28;20491;-51
2021/05/31 09:46:53;;;;;;;8.70;5.23;;;23.80;4.90;;;;;;5096049;28;20286;-51
2021/05/31 09:49:23;;;;;;;6.97;4.63;;;24.00;4.80;;;;;;5093321;28;21364;-52
2021/05/31 09:51:51;;;;;;;6.90;4.37;;;23.60;4.80;;;;;;5086811;28;20398;-52
2021/05/31 09:54:38;;;;;;;7.30;4.57;;;23.40;1.10;;;;;;5080876;28;20822;-51
2021/05/31 09:57:21;;;;;;;7.63;4.43;;;23.70;4.10;;;;;;5083840;28;20241;-50
2021/05/31 09:59:57;;;;;;;7.53;4.87;;;24.10;1.00;;;;;;5080052;28;20325;-51
2021/05/31 10:02:57;;;;;;;6.27;4.33;;;23.50;1.50;;;;;;5083621;28;20195;-51
2021/05/31 10:10:43;;;;;;;6.87;4.30;;;23.30;3.80;;;;;;5081976;28;20200;-51
2021/05/31 10:13:11;;;;;;;7.10;3.53;;;23.40;1.00;;;;;;5081175;28;20257;-51
2021/05/31 10:15:40;;;;;;;7.23;4.43;;;24.00;1.00;;;;;;5080320;28;20669;-51
2021/05/31 10:18:14;;;;;;;5.97;4.43;;;23.80;1.00;;;;;;5081906;28;20234;-52
2021/05/31 10:20:42;;;;;;;6.40;4.03;;;23.60;3.60;;;;;;5081354;28;20248;-50
2021/05/31 10:23:10;;;;;;;9.13;4.30;;;24.00;1.00;;;;;;5082142;28;20670;-51
2021/05/31 10:25:41;;;;;;;5.77;4.13;;;24.10;2.60;;;;;;5082502;28;20225;-51
2021/05/31 10:28:14;;;;;;;4.77;3.40;;;24.50;1.00;;;;;;5078783;28;20256;-51
2021/05/31 10:30:46;;;;;;;6.23;3.90;;;24.40;1.00;;;;;;5079251;28;20192;-51
2021/05/31 10:33:19;;;;;;;7.80;3.60;;;24.00;1.00;;;;;;5078451;28;20643;-51
2021/05/31 10:35:47;;;;;;;8.63;3.80;;;24.00;1.00;;;;;;5083483;28;20209;-51
2021/05/31 10:38:22;;;;;;;6.07;3.57;;;23.50;1.00;;;;;;5081737;28;20678;-51
2021/05/31 10:40:54;;;;;;;6.60;3.73;;;23.20;1.00;;;;;;5079090;28;20624;-51
2021/05/31 10:43:25;;;;;;;6.70;4.30;;;23.50;1.00;;;;;;5081448;28;20267;-51
2021/05/31 10:46:04;;;;;;;7.30;3.80;;;23.50;3.40;;;;;;5079885;28;22092;-51
2021/05/31 10:48:44;;;;;;;9.83;2.93;;;24.00;1.00;;;;;;5079714;28;20280;-51
2021/05/31 10:51:27;;;;;;;4.33;3.40;;;24.40;1.00;;;;;;5080904;28;20248;-51
2021/05/31 10:53:55;;;;;;;7.07;3.57;;;24.10;1.00;;;;;;5079242;28;20199;-51
2021/05/31 10:56:25;;;;;;;4.70;3.27;;;24.20;1.00;;;;;;5078664;28;20252;-51
2021/05/31 10:58:55;;;;;;;4.97;3.10;;;24.00;1.00;;;;;;5081147;28;20236;-51
2021/05/31 11:01:38;;;;;;;5.40;3.60;;;23.50;1.00;;;;;;5074455;28;20492;-51
2021/05/31 11:04:18;;;;;;;6.13;3.30;;;23.50;1.00;;;;;;5079252;28;20219;-51
2021/05/31 11:06:45;;;;;;;6.00;3.97;;;24.00;1.00;;;;;;5077388;28;20220;-51
2021/05/31 11:09:16;;;;;;;6.10;3.43;;;24.00;1.00;;;;;;5081056;28;20221;-51
2021/05/31 11:11:49;;;;;;;6.67;3.30;;;24.80;1.00;;;;;;5079773;28;20293;-51
2021/05/31 11:14:38;;;;;;;5.00;3.67;;;25.30;1.00;;;;;;5080238;28;20210;-51
2021/05/31 11:17:23;;;;;;;6.20;3.10;;;24.90;1.00;;;;;;5069437;28;20280;-51
2021/05/31 11:19:52;;;;;;;4.90;3.17;;;25.20;1.00;;;;;;5073931;28;20263;-51
2021/05/31 11:22:25;;;;;;;5.90;3.67;;;24.90;1.00;;;;;;5073971;28;20198;-50
2021/05/31 11:24:55;;;;;;;3.83;3.43;;;23.90;1.00;;;;;;5069827;28;20204;-51
2021/05/31 11:27:24;;;;;;;7.90;3.37;;;24.50;1.00;;;;;;5074296;28;20233;-56
2021/05/31 11:29:51;;;;;;;4.53;3.17;;;24.80;1.00;;;;;;5074060;28;20201;-51
2021/05/31 11:32:22;;;;;;;2.93;2.37;;;25.50;1.00;;;;;;5076059;28;20197;-51
2021/05/31 11:35:00;;;;;;;3.67;3.37;;;26.10;1.00;;;;;;5070384;28;20259;-50
2021/05/31 11:37:38;;;;;;;5.10;3.20;;;25.30;1.00;;;;;;5072915;28;20284;-51
2021/05/31 11:40:25;;;;;;;4.83;3.80;;;25.70;1.00;;;;;;5072319;28;20701;-51
2021/05/31 11:43:03;;;;;;;5.87;3.73;;;25.40;1.00;;;;;;5069386;28;20189;-50
2021/05/31 11:45:34;;;;;;;7.83;3.60;;;25.60;1.00;;;;;;5066985;28;20296;-51
2021/05/31 11:48:09;;;;;;;4.67;3.40;;;26.20;1.00;;;;;;5066377;28;20198;-52
2021/05/31 11:50:40;;;;;;;5.70;3.27;;;26.20;1.00;;;;;;5073988;28;20295;-51
2021/05/31 11:53:09;;;;;;;6.27;3.97;;;26.70;1.00;;;;;;5073233;28;20273;-51
2021/05/31 11:55:36;;;;;;;8.60;4.10;;;26.70;1.00;;;;;;5070017;28;20625;-51
2021/05/31 11:58:07;;;;;;;3.40;2.93;;;26.30;1.00;;;;;;5069943;28;20730;-51
2021/05/31 12:00:41;;;;;;;6.63;3.60;;;26.00;1.00;;;;;;5068762;28;20268;-51
2021/05/31 12:03:16;;;;;;;4.97;3.40;;;25.40;1.00;;;;;;5069837;28;20285;-50
2021/05/31 12:05:43;;;;;;;4.93;3.90;;;26.00;1.00;;;;;;5069785;28;20301;-51
2021/05/31 12:08:14;;;;;;;4.97;3.50;;;26.10;1.00;;;;;;5070294;28;20336;-49
2021/05/31 12:10:43;;;;;;;3.90;3.17;;;26.10;1.00;;;;;;5066481;28;20297;-50
2021/05/31 12:13:12;;;;;;;5.10;3.07;;;26.20;1.00;;;;;;5068888;28;20341;-52
2021/05/31 12:15:40;;;;;;;4.20;3.60;;;26.40;1.00;;;;;;5067543;28;20499;-50
2021/05/31 12:18:22;;;;;;;3.77;3.37;;;26.60;1.00;;;;;;5074182;28;20565;-50
2021/05/31 12:20:57;;;;;;;5.97;4.37;;;26.60;1.00;;;;;;5074965;28;20643;-50
2021/05/31 12:23:24;;;;;;;6.40;4.87;;;25.80;1.00;;;;;;5068640;28;20239;-52
2021/05/31 12:25:52;;;;;;;6.10;3.80;;;25.50;1.00;;;;;;5068873;28;20229;-52
2021/05/31 12:28:19;;;;;;;3.73;3.20;;;25.10;1.00;;;;;;5067678;28;20199;-52
2021/05/31 12:30:49;;;;;;;4.43;3.50;;;24.80;1.00;;;;;;5062603;28;20214;-51
2021/05/31 12:33:16;;;;;;;4.80;3.50;;;25.00;1.00;;;;;;5059833;28;20285;-51
2021/05/31 12:35:49;;;;;;;6.23;3.47;;;25.60;1.00;;;;;;5069581;28;20299;-51
2021/05/31 12:38:23;;;;;;;4.87;3.33;;;26.10;1.00;;;;;;5066558;28;20233;-50
2021/05/31 12:40:51;;;;;;;4.00;3.43;;;26.10;1.00;;;;;;5052395;28;20234;-50
2021/05/31 12:43:30;;;;;;;3.90;3.10;;;26.30;1.00;;;;;;5068686;28;20751;-60
2021/05/31 12:45:57;;;;;;;6.87;3.23;;;26.30;1.00;;;;;;5066630;28;20621;-56
2021/05/31 12:48:28;;;;;;;5.30;3.03;;;26.90;1.00;;;;;;5067706;28;20199;-56
2021/05/31 12:50:57;;;;;;;4.03;3.10;;;26.60;1.00;;;;;;5067003;28;20605;-57
2021/05/31 12:53:27;;;;;;;4.30;3.07;;;26.90;1.00;;;;;;5065254;28;20394;-57
2021/05/31 12:56:00;;;;;;;4.00;3.40;;;26.40;1.00;;;;;;5067594;28;20195;-57
2021/05/31 12:58:27;;;;;;;5.70;3.70;;;26.40;1.00;;;;;;5050554;28;20205;-57
2021/05/31 13:00:54;;;;;;;5.93;3.60;;;26.50;1.00;;;;;;5066765;28;20303;-57
2021/05/31 13:03:22;;;;;;;5.90;3.60;;;26.70;1.00;;;;;;5070334;28;20298;-57
2021/05/31 13:05:51;;;;;;;4.93;3.50;;;27.00;1.00;;;;;;5070326;28;20279;-57
2021/05/31 13:08:22;;;;;;;6.23;3.90;;;26.60;1.00;;;;;;5063257;28;20564;-57
2021/05/31 13:10:53;;;;;;;5.37;3.90;;;25.80;1.00;;;;;;5063842;28;20305;-57
2021/05/31 13:13:30;;;;;;;4.67;3.43;;;25.80;1.00;;;;;;5063863;28;20202;-57
2021/05/31 13:15:58;;;;;;;7.40;4.70;;;26.00;1.00;;;;;;5062999;28;20347;-56
2021/05/31 13:18:30;;;;;;;7.87;3.70;;;25.30;1.00;;;;;;5065285;28;20835;-56